Weather History for KJWY - May, 2014

Change the Weather History Date:

Saturday, May 17, 2014

  Actual Average (KRBD) Record (KRBD)
Temperature  
Mean Temperature 67 °F -  
Max Temperature 80 °F 81 °F 90 °F (1998)
Min Temperature 55 °F 62 °F 51 °F (2011)
Cooling Degree Days 2    
Growing Degree Days 17 (Base 50)    
Moisture  
Dew Point 51 °F    
Average Humidity 53    
Maximum Humidity 78    
Minimum Humidity 34    
Precipitation  
Precipitation 0.00 in - - ()
Sea Level Pressure  
Sea Level Pressure 29.98 in    
Wind  
Wind Speed 11 mph (SSE)    
Max Wind Speed 17 mph    
Max Gust Speed 24 mph    
Visibility 10 miles    
Events      
Averages and records for this station are not official NWS values.
T = Trace of Precipitation, MM = Missing Value Source: NWS Daily Summary

Daily Weather History Graph

Daily Weather History Graph

Search for Another Location

Airport or City:

Trip Planner

Search our weather history database for the weather conditions in past years. The results will help you decide how hot, cold, wet, or windy it might be!

Date:

Astronomy

May. 17, 2014 Rise Set
Actual Time 6:28 AM CDT 8:20 PM CDT
Civil Twilight 6:00 AM CDT 8:47 PM CDT
Nautical Twilight 5:28 AM CDT 9:20 PM CDT
Astronomical Twilight 4:53 AM CDT 9:55 PM CDT
Moon 11:23 PM CDT (5/17) 9:11 AM CDT (5/17)
Length of Visible Light 14h 46m
Length of Day
13h 52m
Waning Gibbous, 89% of the Moon is Illuminated
May 17
Waning Gibbous
May 21
Last Quarter
May 28
New
Jun 5
First Quarter
Jun 12
Full

Hourly Weather History & Observations

Time (CDT) Temp. Dew Point Humidity Pressure Visibility Wind Dir Wind Speed Gust Speed Precip Events Conditions
12:15 AM 68.0 °F 43.0 °F 40% 29.91 in 10.0 mi South 13.8 mph 17.3 mph N/A   Clear
12:35 AM 68.2 °F 41.9 °F 38% 29.90 in 10.0 mi South 13.8 mph - N/A   Clear
12:55 AM 68.9 °F 40.5 °F 35% 29.90 in 10.0 mi South 15.0 mph 23.0 mph N/A   Clear
1:15 AM 69.1 °F 39.6 °F 34% 29.90 in 10.0 mi South 15.0 mph 19.6 mph N/A   Clear
1:55 AM 67.1 °F 40.8 °F 38% 29.90 in 10.0 mi South 9.2 mph - N/A   Clear
2:15 AM 67.3 °F 40.5 °F 38% 29.90 in 10.0 mi South 15.0 mph 18.4 mph N/A   Clear
2:35 AM 67.6 °F 40.5 °F 37% 29.90 in 10.0 mi South 16.1 mph 21.9 mph N/A   Clear
2:55 AM 67.1 °F 41.7 °F 40% 29.90 in 10.0 mi South 16.1 mph 21.9 mph N/A   Clear
3:15 AM 66.7 °F 42.6 °F 42% 29.90 in 10.0 mi South 17.3 mph 21.9 mph N/A   Clear
3:35 AM 65.7 °F 43.7 °F 45% 29.90 in 10.0 mi South 13.8 mph 20.7 mph N/A   Clear
3:55 AM 64.9 °F 44.6 °F 48% 29.90 in 10.0 mi South 15.0 mph 20.7 mph N/A   Clear
4:15 AM 64.2 °F 45.5 °F 51% 29.90 in 10.0 mi South 11.5 mph - N/A   Clear
4:35 AM 63.0 °F 46.4 °F 55% 29.91 in 10.0 mi South 11.5 mph 17.3 mph N/A   Clear
4:55 AM 61.9 °F 47.1 °F 58% 29.93 in 10.0 mi SSW 9.2 mph - N/A   Clear
5:15 AM 60.6 °F 47.5 °F 62% 29.95 in 10.0 mi Calm Calm - N/A   Clear
5:35 AM 60.3 °F 47.3 °F 62% 29.98 in 10.0 mi ENE 3.5 mph - N/A   Clear
5:55 AM 57.0 °F 47.7 °F 71% 29.99 in 10.0 mi Calm Calm - N/A   Clear
6:15 AM 56.1 °F 47.8 °F 74% 30.00 in 10.0 mi Calm Calm - N/A   Clear
6:35 AM 55.9 °F 47.5 °F 73% 30.01 in 10.0 mi SE 4.6 mph - N/A   Clear
6:55 AM 55.2 °F 48.4 °F 78% 30.00 in 10.0 mi SE 5.8 mph - N/A   Clear
7:15 AM 56.7 °F 48.4 °F 74% 30.02 in 10.0 mi SE 3.5 mph - N/A   Clear
7:35 AM 57.4 °F 49.8 °F 76% 30.01 in 10.0 mi ESE 3.5 mph - N/A   Clear
7:55 AM 58.5 °F 50.4 °F 74% 30.01 in 10.0 mi SE 5.8 mph - N/A   Clear
8:15 AM 59.5 °F 51.3 °F 74% 30.02 in 10.0 mi SE 5.8 mph - N/A   Clear
8:35 AM 61.5 °F 52.0 °F 71% 30.02 in 10.0 mi SSE 6.9 mph - N/A   Clear
8:55 AM 64.0 °F 52.2 °F 65% 30.02 in 10.0 mi SSE 10.4 mph - N/A   Clear
9:15 AM 66.2 °F 53.2 °F 63% 30.03 in 10.0 mi SSE 11.5 mph - N/A   Clear
9:35 AM 67.8 °F 53.8 °F 61% 30.03 in 10.0 mi SSE 10.4 mph - N/A   Clear
9:55 AM 68.7 °F 53.4 °F 58% 30.03 in 10.0 mi South 11.5 mph - N/A   Clear
10:15 AM 69.6 °F 52.7 °F 55% 30.03 in 10.0 mi SSE 12.7 mph - N/A   Clear
10:35 AM 71.2 °F 52.2 °F 51% 30.02 in 10.0 mi SSE 11.5 mph - N/A   Clear
10:55 AM 71.4 °F 52.0 °F 50% 30.02 in 10.0 mi SSE 12.7 mph - N/A   Clear
11:15 AM 73.4 °F 51.6 °F 46% 30.02 in 10.0 mi SSE 13.8 mph 19.6 mph N/A   Clear
11:35 AM 72.9 °F 51.3 °F 47% 30.03 in 10.0 mi South 10.4 mph 13.8 mph N/A   Clear
11:55 AM 72.9 °F 49.3 °F 43% 30.03 in 10.0 mi South 11.5 mph - N/A   Clear
12:15 PM 73.8 °F 49.6 °F 43% 30.02 in 10.0 mi South 13.8 mph - N/A   Clear
12:35 PM 75.6 °F 49.8 °F 40% 30.01 in 10.0 mi South 13.8 mph 20.7 mph N/A   Clear
12:55 PM 76.1 °F 50.7 °F 41% 30.01 in 10.0 mi South 13.8 mph 19.6 mph N/A   Clear
1:15 PM 76.6 °F 50.4 °F 40% 30.01 in 10.0 mi South 12.7 mph 18.4 mph N/A   Clear
1:35 PM 77.0 °F 50.7 °F 40% 30.01 in 10.0 mi SSE 15.0 mph - N/A   Clear
1:55 PM 77.5 °F 51.4 °F 40% 30.00 in 10.0 mi SSE 15.0 mph 19.6 mph N/A   Clear
2:15 PM 77.7 °F 52.0 °F 41% 30.00 in 10.0 mi SSE 13.8 mph 24.2 mph N/A   Clear
2:35 PM 77.5 °F 52.3 °F 41% 30.00 in 10.0 mi South 17.3 mph 23.0 mph N/A   Clear
2:55 PM 78.3 °F 54.7 °F 44% 29.99 in 10.0 mi South 16.1 mph 23.0 mph N/A   Clear
3:15 PM 79.0 °F 55.4 °F 44% 29.99 in 10.0 mi South 13.8 mph 19.6 mph N/A   Clear
3:35 PM 78.8 °F 55.9 °F 45% 29.98 in 10.0 mi South 17.3 mph 21.9 mph N/A   Clear
3:55 PM 79.7 °F 56.5 °F 45% 29.98 in 10.0 mi South 16.1 mph 21.9 mph N/A   Clear
4:15 PM 79.7 °F 56.7 °F 45% 29.97 in 10.0 mi South 15.0 mph 19.6 mph N/A   Clear
4:35 PM 78.8 °F 55.8 °F 45% 29.97 in 10.0 mi South 13.8 mph 20.7 mph N/A   Clear
4:55 PM 79.2 °F 56.7 °F 46% 29.97 in 10.0 mi South 10.4 mph 17.3 mph N/A   Clear
5:15 PM 79.0 °F 56.3 °F 46% 29.97 in 10.0 mi South 11.5 mph 16.1 mph N/A   Clear
5:35 PM 79.7 °F 56.1 °F 44% 29.96 in 10.0 mi South 9.2 mph - N/A   Clear
5:55 PM 78.8 °F 56.7 °F 46% 29.96 in 10.0 mi SSE 4.6 mph - N/A   Clear
6:15 PM 79.2 °F 57.6 °F 47% 29.96 in 10.0 mi SE 3.5 mph - N/A   Clear
6:35 PM 78.6 °F 57.4 °F 48% 29.95 in 10.0 mi SSE 6.9 mph - N/A   Clear
6:55 PM 78.6 °F 56.1 °F 46% 29.96 in 10.0 mi SE 3.5 mph - N/A   Clear
7:15 PM 77.0 °F 57.7 °F 51% 29.96 in 10.0 mi Calm Calm - N/A   Clear
7:35 PM 76.3 °F 57.4 °F 52% 29.96 in 10.0 mi ESE 3.5 mph - N/A   Clear
7:55 PM 75.7 °F 56.8 °F 52% 29.97 in 10.0 mi ESE 3.5 mph - N/A   Clear
8:15 PM 75.2 °F 56.3 °F 52% 29.97 in 10.0 mi SE 4.6 mph - N/A   Clear
8:35 PM 74.5 °F 56.3 °F 53% 29.97 in 10.0 mi SE 5.8 mph - N/A   Clear
8:55 PM 74.3 °F 55.6 °F 52% 29.98 in 10.0 mi SE 5.8 mph - N/A   Clear
9:15 PM 71.6 °F 56.3 °F 58% 29.98 in 10.0 mi Calm Calm - N/A   Clear
9:35 PM 68.9 °F 58.1 °F 68% 29.99 in 10.0 mi East 3.5 mph - N/A   Clear
9:55 PM 69.3 °F 57.4 °F 66% 29.99 in 10.0 mi East 4.6 mph - N/A   Clear
10:15 PM 68.2 °F 57.2 °F 68% 30.00 in 10.0 mi ENE 3.5 mph - N/A   Clear
10:35 PM 67.3 °F 57.6 °F 71% 30.01 in 10.0 mi East 4.6 mph - N/A   Clear
10:55 PM 67.5 °F 56.7 °F 68% 30.02 in 10.0 mi East 3.5 mph - N/A   Clear
11:15 PM 66.7 °F 55.4 °F 67% 30.02 in 10.0 mi ESE 4.6 mph - N/A   Clear
11:35 PM 67.8 °F 52.9 °F 59% 30.03 in 10.0 mi SE 5.8 mph - N/A   Clear
11:55 PM 68.5 °F 51.3 °F 54% 30.03 in 10.0 mi SSE 9.2 mph - N/A   Clear